createdAt,value
2023-02-15T00:01:53.238Z,3.47
2023-02-15T00:04:23.847Z,3.45
2023-02-15T00:06:52.794Z,3.42
2023-02-15T00:09:19.623Z,3.42
2023-02-15T00:11:52.275Z,3.43
2023-02-15T00:14:20.701Z,3.41
2023-02-15T00:16:48.726Z,3.40
2023-02-15T00:19:18.311Z,3.42
2023-02-15T00:21:45.751Z,3.44
2023-02-15T00:24:14.865Z,3.42
2023-02-15T00:26:42.888Z,3.40
2023-02-15T00:29:12.046Z,3.37
2023-02-15T00:31:39.020Z,3.39
2023-02-15T00:34:12.158Z,3.40
2023-02-15T00:36:39.128Z,3.40
2023-02-15T00:39:06.758Z,3.40
2023-02-15T00:41:34.649Z,3.40
2023-02-15T00:44:01.814Z,3.42
2023-02-15T00:46:30.415Z,3.43
2023-02-15T00:48:57.985Z,3.42
2023-02-15T00:51:25.519Z,3.41
2023-02-15T00:53:52.515Z,3.38
2023-02-15T00:56:19.367Z,3.37
2023-02-15T00:58:46.085Z,3.34
2023-02-15T01:01:16.568Z,3.30
2023-02-15T01:03:43.944Z,3.27
2023-02-15T01:06:11.617Z,3.27
2023-02-15T01:08:38.843Z,3.22
2023-02-15T01:11:14.140Z,3.20
2023-02-15T01:13:42.118Z,3.22
2023-02-15T01:16:09.431Z,3.19
2023-02-15T01:18:36.789Z,3.18
2023-02-15T01:21:14.847Z,3.12
2023-02-15T01:23:45.067Z,3.09
2023-02-15T01:26:13.806Z,3.09
2023-02-15T01:28:40.751Z,3.08
2023-02-15T01:31:18.933Z,3.04
2023-02-15T01:33:46.606Z,3.02
2023-02-15T01:36:13.690Z,3.03
2023-02-15T01:38:41.081Z,2.99
2023-02-15T01:41:27.595Z,2.99
2023-02-15T01:43:57.627Z,3.01
2023-02-15T01:46:35.927Z,3.03
2023-02-15T01:49:27.096Z,2.92
2023-02-15T01:51:54.058Z,2.94
2023-02-15T01:54:32.868Z,2.90
2023-02-15T01:57:05.848Z,2.88
2023-02-15T01:59:34.795Z,2.90
2023-02-15T02:02:02.561Z,2.95
2023-02-15T02:04:39.182Z,2.91
2023-02-15T02:07:07.510Z,2.90
2023-02-15T02:09:34.936Z,2.87
2023-02-15T02:12:02.268Z,2.82
2023-02-15T02:14:29.729Z,2.81
2023-02-15T02:17:16.771Z,2.73
2023-02-15T02:20:17.735Z,2.73
2023-02-15T02:22:47.093Z,2.73
2023-02-15T02:25:21.625Z,2.72
2023-02-15T02:28:15.535Z,2.65
2023-02-15T02:31:00.968Z,2.45
2023-02-15T02:33:34.338Z,2.62
2023-02-15T02:36:20.268Z,2.61
2023-02-15T02:39:11.647Z,2.58
2023-02-15T02:41:58.970Z,2.61
2023-02-15T02:44:52.875Z,2.56
2023-02-15T02:47:31.881Z,2.49
2023-02-15T02:50:02.272Z,2.49
2023-02-15T02:52:39.697Z,2.43
2023-02-15T02:55:21.077Z,2.41
2023-02-15T02:58:05.954Z,2.36
2023-02-15T03:01:07.083Z,2.37
2023-02-15T03:03:51.693Z,2.32
2023-02-15T03:06:27.590Z,2.14
2023-02-15T03:09:15.478Z,2.27
2023-02-15T03:11:45.131Z,2.25
2023-02-15T03:14:15.118Z,2.24
2023-02-15T03:16:44.317Z,2.25
2023-02-15T03:19:23.095Z,2.23
2023-02-15T03:22:04.594Z,2.19
2023-02-15T03:24:44.637Z,2.16
2023-02-15T03:27:25.381Z,2.10
2023-02-15T03:29:57.858Z,2.06
2023-02-15T03:32:26.953Z,2.06
2023-02-15T03:34:53.859Z,2.04
2023-02-15T03:37:57.078Z,2.01
2023-02-15T03:41:01.047Z,1.96
2023-02-15T03:43:52.485Z,1.95
2023-02-15T03:46:29.003Z,1.93
2023-02-15T03:49:05.154Z,1.90
2023-02-15T03:51:39.064Z,1.88
2023-02-15T03:54:08.157Z,1.88
2023-02-15T03:56:37.719Z,1.87
2023-02-15T03:59:23.788Z,1.89
2023-02-15T04:02:02.340Z,1.79
2023-02-15T04:04:38.782Z,1.79
2023-02-15T04:07:08.382Z,1.80
2023-02-15T04:09:53.920Z,1.75
2023-02-15T04:12:21.176Z,1.72
2023-02-15T04:15:06.427Z,1.73
2023-02-15T04:17:33.265Z,1.71
2023-02-15T04:20:18.877Z,1.69
2023-02-15T04:23:04.169Z,1.71
2023-02-15T04:25:32.348Z,1.73
2023-02-15T04:27:59.144Z,1.70
2023-02-15T04:30:27.524Z,1.72
2023-02-15T04:32:55.859Z,1.69
2023-02-15T04:35:23.461Z,1.67
2023-02-15T04:37:50.341Z,1.65
2023-02-15T04:40:19.519Z,1.65
2023-02-15T04:42:50.094Z,1.65
2023-02-15T04:45:18.041Z,1.68
2023-02-15T04:47:45.571Z,1.70
2023-02-15T04:50:12.710Z,1.67
2023-02-15T04:52:39.842Z,1.64
2023-02-15T04:55:07.322Z,1.63
2023-02-15T04:57:34.193Z,1.63
2023-02-15T05:00:00.930Z,1.63
2023-02-15T05:02:27.749Z,1.65
2023-02-15T05:04:55.825Z,1.65
2023-02-15T05:07:22.607Z,1.66
2023-02-15T05:09:49.724Z,1.63
2023-02-15T05:12:16.732Z,1.61
2023-02-15T05:14:43.523Z,1.58
2023-02-15T05:17:10.337Z,1.57
2023-02-15T05:19:37.090Z,1.56
2023-02-15T05:22:03.845Z,1.62
2023-02-15T05:24:49.006Z,1.75
2023-02-15T05:27:36.113Z,1.86
2023-02-15T05:30:03.252Z,1.96
2023-02-15T05:32:31.591Z,1.97
2023-02-15T05:34:58.905Z,2.03
2023-02-15T05:37:25.831Z,2.06
2023-02-15T05:39:52.624Z,2.16
2023-02-15T05:42:19.323Z,2.21
2023-02-15T05:44:46.156Z,2.14
2023-02-15T05:47:13.011Z,2.04
2023-02-15T05:49:39.768Z,1.96
2023-02-15T05:52:07.068Z,1.89
2023-02-15T05:54:33.931Z,1.80
2023-02-15T05:57:00.737Z,1.68
2023-02-15T05:59:27.728Z,1.55
2023-02-15T06:01:54.676Z,1.52
2023-02-15T06:04:21.657Z,1.48
2023-02-15T06:06:48.450Z,1.46
2023-02-15T06:09:15.553Z,1.46
2023-02-15T06:11:42.476Z,1.48
2023-02-15T06:14:13.424Z,1.43
2023-02-15T06:16:40.553Z,1.30
2023-02-15T06:19:07.892Z,1.23
2023-02-15T06:21:35.050Z,1.17
2023-02-15T06:24:01.862Z,1.20
2023-02-15T06:26:28.701Z,1.18
2023-02-15T06:28:55.507Z,1.21
2023-02-15T06:31:22.453Z,1.31
2023-02-15T06:33:49.334Z,1.51
2023-02-15T06:36:16.137Z,1.58
2023-02-15T06:38:43.132Z,1.65
2023-02-15T06:41:10.060Z,1.80
2023-02-15T06:43:36.763Z,1.96
2023-02-15T06:46:03.896Z,2.20
2023-02-15T06:48:30.916Z,2.25
2023-02-15T06:50:57.750Z,2.41
2023-02-15T06:53:24.524Z,2.67
2023-02-15T06:55:51.314Z,3.02
2023-02-15T06:58:18.032Z,3.40
2023-02-15T07:00:44.807Z,3.69
2023-02-15T07:03:14.150Z,3.75
2023-02-15T07:05:41.458Z,3.73
2023-02-15T07:08:08.385Z,3.70
2023-02-15T07:10:35.210Z,3.66
2023-02-15T07:13:02.696Z,3.69
2023-02-15T07:15:29.501Z,3.64
2023-02-15T07:17:57.813Z,3.65
2023-02-15T07:20:25.247Z,3.72
2023-02-15T07:22:52.815Z,3.82
2023-02-15T07:25:19.938Z,3.93
2023-02-15T07:27:47.117Z,3.96
2023-02-15T07:30:17.169Z,3.96
2023-02-15T07:33:05.284Z,4.01
2023-02-15T07:35:33.147Z,4.18
2023-02-15T07:38:00.199Z,4.16
2023-02-15T07:40:27.383Z,4.09
2023-02-15T07:42:55.869Z,4.13
2023-02-15T07:45:23.263Z,4.12
2023-02-15T07:47:50.106Z,4.12
2023-02-15T07:50:17.115Z,3.99
2023-02-15T07:52:44.045Z,3.94
2023-02-15T07:55:13.836Z,4.12
2023-02-15T07:57:46.220Z,4.34
2023-02-15T08:00:17.962Z,4.60
2023-02-15T08:03:10.266Z,4.55
2023-02-15T08:05:37.348Z,4.35
2023-02-15T08:08:04.346Z,4.48
2023-02-15T08:10:50.123Z,4.64
2023-02-15T08:13:16.892Z,4.32
2023-02-15T08:15:50.756Z,4.45
2023-02-15T08:18:17.668Z,4.73
2023-02-15T08:20:49.996Z,4.78
2023-02-15T08:23:16.946Z,4.40
2023-02-15T08:25:43.936Z,4.47
2023-02-15T08:28:10.968Z,4.64
2023-02-15T08:30:37.974Z,4.83
2023-02-15T08:33:05.211Z,5.06
2023-02-15T08:35:32.172Z,5.28
2023-02-15T08:37:58.971Z,5.38
2023-02-15T08:40:26.064Z,5.48
2023-02-15T08:42:52.772Z,5.57
2023-02-15T08:45:19.559Z,5.65
2023-02-15T08:47:46.563Z,5.69
2023-02-15T08:50:13.791Z,5.78
2023-02-15T08:52:40.664Z,5.84
2023-02-15T08:55:07.692Z,5.84
2023-02-15T08:57:34.650Z,5.80
2023-02-15T09:00:01.580Z,5.83
2023-02-15T09:02:31.334Z,5.87
2023-02-15T09:04:58.180Z,5.93
2023-02-15T09:07:25.161Z,5.96
2023-02-15T09:09:51.950Z,6.00
2023-02-15T09:12:18.852Z,5.99
2023-02-15T09:14:45.728Z,5.75
2023-02-15T09:17:14.280Z,5.77
2023-02-15T09:19:42.695Z,5.86
2023-02-15T09:22:09.797Z,5.82
2023-02-15T09:24:36.748Z,5.67
2023-02-15T09:27:03.629Z,5.44
2023-02-15T09:29:30.479Z,5.33
2023-02-15T09:31:57.364Z,5.45
2023-02-15T09:34:25.030Z,5.54
2023-02-15T09:36:52.211Z,5.48
2023-02-15T09:39:24.948Z,5.28
2023-02-15T09:41:57.856Z,5.16
2023-02-15T09:44:38.973Z,5.14
2023-02-15T09:47:33.269Z,5.25
2023-02-15T09:50:37.023Z,5.21
2023-02-15T09:53:10.831Z,5.19
2023-02-15T09:56:05.175Z,5.28
2023-02-15T09:58:50.466Z,5.29
2023-02-15T10:01:41.685Z,5.17
2023-02-15T10:04:36.644Z,4.96
2023-02-15T10:07:28.216Z,5.24
2023-02-15T10:10:19.271Z,5.28
2023-02-15T10:13:17.490Z,5.51
2023-02-15T10:16:03.133Z,5.66
2023-02-15T10:18:57.059Z,5.60
2023-02-15T10:21:41.388Z,5.23
2023-02-15T10:24:25.587Z,5.46
2023-02-15T10:26:54.585Z,5.51
2023-02-15T10:29:30.649Z,5.71
2023-02-15T10:32:26.102Z,5.61
2023-02-15T10:35:21.167Z,5.58
2023-02-15T10:37:55.214Z,5.66
2023-02-15T10:40:24.993Z,5.56
2023-02-15T10:42:54.874Z,5.64
2023-02-15T10:45:41.242Z,5.77
2023-02-15T10:48:23.611Z,5.98
2023-02-15T10:50:54.955Z,6.05
2023-02-15T10:53:21.772Z,6.06
2023-02-15T10:56:21.327Z,5.99
2023-02-15T10:59:07.865Z,6.17
2023-02-15T11:01:41.849Z,6.32
2023-02-15T11:04:17.610Z,6.31
2023-02-15T11:06:55.073Z,6.42
2023-02-15T11:09:25.802Z,6.66
2023-02-15T11:11:58.250Z,6.84
2023-02-15T11:14:32.695Z,6.91
2023-02-15T11:17:06.937Z,6.77
2023-02-15T11:19:38.662Z,6.66
2023-02-15T11:22:07.724Z,6.60
2023-02-15T11:24:43.359Z,6.58
2023-02-15T11:27:21.046Z,6.58
2023-02-15T11:30:03.718Z,6.43
2023-02-15T11:32:36.229Z,6.51
2023-02-15T11:35:15.311Z,6.40
2023-02-15T11:37:58.244Z,6.46
2023-02-15T11:40:45.479Z,6.32
2023-02-15T11:43:21.456Z,6.35
2023-02-15T11:45:48.515Z,6.30
2023-02-15T11:48:16.901Z,6.22
2023-02-15T11:50:45.490Z,6.21
2023-02-15T11:53:17.322Z,6.17
2023-02-15T11:55:46.813Z,6.20
2023-02-15T11:58:16.505Z,6.17
2023-02-15T12:00:50.379Z,6.15
2023-02-15T12:03:45.600Z,6.08
2023-02-15T12:06:21.470Z,5.98
2023-02-15T12:09:00.177Z,6.02
2023-02-15T12:11:39.713Z,6.06
2023-02-15T12:14:21.796Z,6.04
2023-02-15T12:16:51.951Z,6.08
2023-02-15T12:19:41.685Z,5.96
2023-02-15T12:22:21.691Z,6.01
2023-02-15T12:24:50.003Z,6.12
2023-02-15T12:27:19.722Z,6.14
2023-02-15T12:29:50.074Z,6.12
2023-02-15T12:32:41.634Z,6.00
2023-02-15T12:35:33.544Z,5.90
2023-02-15T12:38:22.710Z,5.88
2023-02-15T12:41:01.931Z,5.95
2023-02-15T12:43:35.725Z,6.03
2023-02-15T12:46:23.761Z,6.02
2023-02-15T12:49:20.444Z,6.03
2023-02-15T12:51:59.018Z,6.13
2023-02-15T12:54:36.795Z,6.17
2023-02-15T12:57:30.421Z,6.11
2023-02-15T13:00:07.114Z,6.15
2023-02-15T13:02:43.571Z,6.22
2023-02-15T13:05:34.997Z,6.20
2023-02-15T13:08:15.077Z,6.25
2023-02-15T13:10:56.870Z,6.20
2023-02-15T13:13:30.625Z,6.25
2023-02-15T13:16:02.969Z,6.30
2023-02-15T13:18:35.747Z,6.10
2023-02-15T13:21:19.631Z,6.34
2023-02-15T13:23:51.786Z,6.30
2023-02-15T13:26:24.460Z,6.33
2023-02-15T13:28:57.577Z,6.26
2023-02-15T13:31:33.219Z,6.25
2023-02-15T13:34:21.517Z,6.20
2023-02-15T13:37:35.650Z,6.15
2023-02-15T13:40:31.340Z,6.21
2023-02-15T13:43:31.567Z,6.15
2023-02-15T13:46:01.370Z,6.25
2023-02-15T13:48:50.576Z,6.20
2023-02-15T13:51:26.710Z,6.22
2023-02-15T13:54:20.617Z,6.15
2023-02-15T13:57:01.764Z,6.17
2023-02-15T13:59:54.662Z,6.15
2023-02-15T14:02:40.220Z,6.13
2023-02-15T14:05:32.160Z,6.20
2023-02-15T14:08:31.229Z,6.25
2023-02-15T14:11:42.490Z,6.24
2023-02-15T14:14:59.939Z,6.27
2023-02-15T14:17:50.335Z,6.45
2023-02-15T14:20:52.752Z,6.40
2023-02-15T14:23:28.558Z,6.48
2023-02-15T14:26:17.584Z,6.38
2023-02-15T14:28:50.112Z,6.49
2023-02-15T14:31:21.557Z,6.52
2023-02-15T14:33:57.522Z,6.51
2023-02-15T14:36:26.090Z,6.56
2023-02-15T14:38:59.460Z,6.59
2023-02-15T14:41:26.234Z,6.23
2023-02-15T14:44:23.698Z,6.39
2023-02-15T14:47:00.895Z,6.43
2023-02-15T14:49:48.059Z,6.36
2023-02-15T14:52:15.054Z,6.31
2023-02-15T14:54:42.057Z,6.18
2023-02-15T14:57:09.468Z,6.20
2023-02-15T14:59:44.978Z,6.23
2023-02-15T15:02:23.970Z,6.28
2023-02-15T15:05:08.906Z,6.26
2023-02-15T15:07:51.705Z,6.28
2023-02-15T15:10:18.734Z,6.30
2023-02-15T15:12:48.371Z,6.28
2023-02-15T15:15:54.489Z,6.15
2023-02-15T15:18:44.916Z,6.14
2023-02-15T15:21:11.807Z,6.25
2023-02-15T15:23:45.385Z,6.32
2023-02-15T15:26:37.793Z,6.30
2023-02-15T15:29:07.507Z,6.35
2023-02-15T15:31:54.483Z,6.26
2023-02-15T15:34:33.032Z,6.30
2023-02-15T15:37:11.975Z,6.27
2023-02-15T15:40:16.187Z,6.20
2023-02-15T15:43:13.980Z,6.20
2023-02-15T15:46:21.849Z,6.14
2023-02-15T15:48:49.292Z,6.13
2023-02-15T15:51:21.961Z,6.02
2023-02-15T15:53:54.350Z,5.90
2023-02-15T15:56:29.118Z,5.66
2023-02-15T15:59:08.547Z,5.47
2023-02-15T16:01:44.006Z,5.30
2023-02-15T16:04:32.709Z,5.09
2023-02-15T16:07:23.413Z,5.09
2023-02-15T16:10:05.216Z,4.97
2023-02-15T16:12:36.928Z,4.94
2023-02-15T16:15:20.083Z,4.87
2023-02-15T16:17:50.833Z,4.78
2023-02-15T16:20:19.896Z,4.73
2023-02-15T16:22:50.567Z,4.65
2023-02-15T16:25:36.790Z,4.56
2023-02-15T16:28:13.397Z,4.44
2023-02-15T16:30:41.265Z,4.35
2023-02-15T16:33:11.207Z,4.26
2023-02-15T16:35:59.457Z,4.19
2023-02-15T16:38:44.812Z,4.06
2023-02-15T16:41:33.162Z,4.06
2023-02-15T16:44:06.218Z,4.10
2023-02-15T16:46:37.479Z,4.10
2023-02-15T16:49:12.659Z,4.09
2023-02-15T16:51:45.894Z,4.01
2023-02-15T16:54:21.987Z,3.96
2023-02-15T16:56:49.030Z,3.96
2023-02-15T16:59:36.473Z,3.83
2023-02-15T17:02:49.303Z,3.82
2023-02-15T17:05:14.622Z,3.75
2023-02-15T17:07:43.397Z,3.76
2023-02-15T17:10:27.898Z,3.64
2023-02-15T17:12:56.401Z,3.67
2023-02-15T17:15:41.568Z,3.53
2023-02-15T17:18:17.409Z,3.52
2023-02-15T17:20:45.238Z,3.54
2023-02-15T17:23:33.856Z,3.48
2023-02-15T17:26:12.126Z,3.51
2023-02-15T17:28:45.302Z,3.48
2023-02-15T17:31:15.109Z,3.24
2023-02-15T17:33:42.023Z,3.44
2023-02-15T17:36:20.383Z,3.46
2023-02-15T17:38:59.264Z,3.37
2023-02-15T17:41:30.852Z,3.39
2023-02-15T17:43:58.020Z,3.37
2023-02-15T17:46:27.732Z,3.34
2023-02-15T17:48:57.019Z,3.30
2023-02-15T17:51:24.509Z,3.27
2023-02-15T17:54:10.217Z,3.23
2023-02-15T17:56:38.910Z,3.19
2023-02-15T17:59:07.699Z,3.21
2023-02-15T18:01:55.755Z,3.14
2023-02-15T18:04:41.528Z,3.12
2023-02-15T18:07:37.390Z,3.07
2023-02-15T18:10:37.187Z,3.05
2023-02-15T18:13:04.424Z,3.03
2023-02-15T18:15:31.580Z,3.00
2023-02-15T18:17:58.584Z,3.00
2023-02-15T18:20:34.817Z,2.99
2023-02-15T18:23:02.319Z,3.02
2023-02-15T18:25:29.249Z,3.04
2023-02-15T18:27:57.500Z,3.05
2023-02-15T18:30:28.260Z,3.03
2023-02-15T18:32:57.676Z,2.99
2023-02-15T18:35:30.393Z,2.96
2023-02-15T18:37:58.388Z,2.93
2023-02-15T18:40:28.113Z,2.91
2023-02-15T18:42:57.173Z,2.86
2023-02-15T18:45:28.572Z,2.83
2023-02-15T18:47:55.429Z,2.78
2023-02-15T18:50:24.704Z,2.77
2023-02-15T18:52:51.873Z,2.74
2023-02-15T18:55:27.880Z,2.66
2023-02-15T18:57:57.044Z,2.67
2023-02-15T19:00:34.446Z,2.64
2023-02-15T19:03:02.287Z,2.59
2023-02-15T19:05:31.029Z,2.58
2023-02-15T19:08:00.701Z,2.56
2023-02-15T19:10:30.651Z,2.52
2023-02-15T19:12:57.672Z,2.50
2023-02-15T19:15:26.958Z,2.46
2023-02-15T19:17:54.387Z,2.47
2023-02-15T19:20:28.039Z,2.47
2023-02-15T19:22:57.938Z,2.55
2023-02-15T19:25:34.052Z,2.55
2023-02-15T19:28:02.522Z,2.58
2023-02-15T19:30:31.959Z,2.58
2023-02-15T19:32:59.941Z,2.57
2023-02-15T19:35:32.041Z,2.51
2023-02-15T19:38:05.979Z,2.49
2023-02-15T19:40:38.822Z,2.49
2023-02-15T19:43:26.073Z,2.44
2023-02-15T19:45:53.837Z,2.45
2023-02-15T19:48:20.660Z,2.45
2023-02-15T19:50:48.267Z,2.45
2023-02-15T19:53:26.504Z,2.39
2023-02-15T19:55:54.586Z,2.39
2023-02-15T19:58:21.984Z,2.40
2023-02-15T20:00:51.028Z,2.33
2023-02-15T20:03:18.103Z,2.35
2023-02-15T20:05:45.509Z,2.31
2023-02-15T20:08:23.052Z,2.25
2023-02-15T20:10:50.410Z,2.27
2023-02-15T20:13:19.337Z,2.28
2023-02-15T20:15:47.165Z,2.29
2023-02-15T20:18:14.114Z,2.27
2023-02-15T20:20:53.556Z,2.23
2023-02-15T20:23:30.967Z,2.20
2023-02-15T20:26:14.065Z,2.17
2023-02-15T20:28:40.921Z,2.16
2023-02-15T20:31:13.637Z,2.24
2023-02-15T20:33:40.643Z,2.26
2023-02-15T20:36:11.598Z,2.26
2023-02-15T20:38:38.772Z,2.27
2023-02-15T20:41:24.133Z,2.27
2023-02-15T20:43:51.363Z,2.23
2023-02-15T20:46:18.419Z,2.22
2023-02-15T20:48:46.206Z,2.20
2023-02-15T20:51:21.093Z,2.13
2023-02-15T20:53:48.947Z,2.13
2023-02-15T20:56:24.679Z,2.10
2023-02-15T20:58:53.073Z,2.11
2023-02-15T21:01:20.719Z,2.13
2023-02-15T21:03:48.098Z,2.16
2023-02-15T21:06:17.072Z,2.15
2023-02-15T21:08:44.357Z,2.17
2023-02-15T21:11:22.382Z,2.15
2023-02-15T21:13:51.205Z,2.16
2023-02-15T21:16:18.270Z,2.14
2023-02-15T21:18:45.306Z,2.12
2023-02-15T21:21:23.771Z,2.09
2023-02-15T21:23:52.022Z,2.04
2023-02-15T21:26:21.886Z,1.99
2023-02-15T21:28:52.442Z,2.00
2023-02-15T21:31:27.225Z,1.99
2023-02-15T21:33:54.158Z,1.96
2023-02-15T21:36:24.263Z,1.93
2023-02-15T21:38:53.841Z,1.91
2023-02-15T21:41:41.407Z,1.89
2023-02-15T21:44:39.472Z,1.76
2023-02-15T21:47:35.782Z,1.71
2023-02-15T21:50:22.658Z,1.70
2023-02-15T21:52:49.565Z,1.58
2023-02-15T21:55:16.973Z,1.53
2023-02-15T21:57:44.035Z,1.49
2023-02-15T22:00:22.998Z,1.45
2023-02-15T22:02:55.178Z,1.50
2023-02-15T22:05:30.741Z,1.52
2023-02-15T22:07:57.835Z,1.45
2023-02-15T22:10:29.884Z,1.44
2023-02-15T22:12:57.184Z,1.43
2023-02-15T22:15:33.324Z,1.41
2023-02-15T22:18:04.119Z,1.40
2023-02-15T22:20:31.325Z,1.39
2023-02-15T22:22:58.140Z,1.35
2023-02-15T22:25:25.936Z,1.32
2023-02-15T22:27:54.161Z,1.30
2023-02-15T22:30:23.933Z,1.20
2023-02-15T22:32:51.075Z,1.15
2023-02-15T22:35:35.012Z,1.10
2023-02-15T22:38:02.055Z,1.18
2023-02-15T22:40:32.324Z,1.21
2023-02-15T22:43:02.359Z,1.22
2023-02-15T22:45:29.367Z,1.24
2023-02-15T22:47:58.728Z,1.19
2023-02-15T22:50:28.754Z,1.18
2023-02-15T22:52:55.958Z,1.25
2023-02-15T22:55:25.223Z,1.30
2023-02-15T22:57:57.550Z,1.30
2023-02-15T23:00:28.021Z,1.33
2023-02-15T23:03:10.354Z,1.38
2023-02-15T23:05:37.204Z,1.39
2023-02-15T23:08:04.199Z,1.44
2023-02-15T23:10:31.338Z,1.44
2023-02-15T23:13:18.575Z,1.43
2023-02-15T23:15:49.025Z,1.44
2023-02-15T23:18:24.068Z,1.44
2023-02-15T23:20:57.404Z,1.52
2023-02-15T23:23:40.439Z,1.53
2023-02-15T23:26:16.162Z,1.59
2023-02-15T23:28:42.977Z,1.62
2023-02-15T23:31:25.052Z,1.59
2023-02-15T23:33:53.152Z,1.64
2023-02-15T23:36:30.736Z,1.63
2023-02-15T23:39:19.840Z,1.63
2023-02-15T23:41:46.665Z,1.60
2023-02-15T23:44:14.158Z,1.59
2023-02-15T23:46:43.265Z,1.64
2023-02-15T23:49:15.950Z,1.67
2023-02-15T23:51:44.058Z,1.67
2023-02-15T23:54:11.330Z,1.68
2023-02-15T23:56:38.450Z,1.67
2023-02-15T23:59:05.390Z,1.66
